Hauptseite
METAR-TAF:

METAR-TAF

Flughäfen :

Flughafen Chengdu-Shuangliu

Chengdu, China

Breite: 30-40N, Länge: 104-01E, Höhe: 508 m

Beobachtung

Neuester Wetterbericht von vor 45 Minuten, um 18:00 UTC
Wind 4 kt aus Nord, variierte zwischen Nordwest und Nordost
Temperatur 9°C
Luftfeuchtigkeit 87%
Luftdruck 1023 hPa
Sichtweite 10 km oder mehr
Leicht bewölkt in der Höhe von 1000 ft
Durchbrochene Bewölkung in der Höhe von 2600 ft
Leichtregen

METAR: ZUUU 161800Z 35002MPS 310V050 9999 -RA FEW010 BKN026 09/07 Q1023 NOSIG

Zeit: 02:45 (18:45 UTC)

Prognose

Neuester Wetterbericht von vor 4 Stunden und 29 Minuten, um 14:16 UTC
Gültige Prognose vom 16 um 18 UTC bis 17 um 18 UTC
Wind 8 kt aus Nord/Nordost
Sichtweite: 5000 m
Leicht bewölkt in der Höhe von 1000 ft
Aufgelockert bewölkt in der Höhe von 4000 ft
Leichtregen, feuchter Dunst

TAF: ZUUU 161416Z 1618/1718 02004MPS 5000 -RA BR FEW010 SCT040 TX10/1706Z TN07/1622Z

Wetterbeobachtungen und Prognosen von mehr als 4000 Flughäfen (METAR und TAF Bericht).

Die verfügbaren Stationen werden durch gelbe und rote Markierungen auf der Karte dargestellt.

Führen Sie die Maus auf sie, um den Namen der Station zu sehen.

Darauf klicken, um die Beobachtung von Wetterbeobachtungen und Prognosen zu sehen.

Um die Karte zu ändern : klicken Sie auf den grünen Tasten mit einem schwarzen Kreuz Zum Vergrößern, auf den grünen Button mit einem Gedankenstrich zu verkleinern, oder auf die grünen Pfeile für benachbarte Karten.


METAR-TAF: